Time;durP1;ratioP1;P1;durP2;ratioP2;P2;SDS_P1;SDS_P2;PMS_P1;PMS_P2;Temp;Humidity;BMP_temperature;BMP_pressure;BME280_temperature;BME280_humidity;BME280_pressure;Samples;Min_cycle;Max_cycle;Signal;HPM_P1;HPM_P2
2022/07/27 00:02:17;;;;;;;;;;;614.60;2432.00;;;;;;5114328;28;19924;-55
2022/07/27 00:04:42;;;;;;;;;;;614.70;2432.00;;;;;;5114943;28;20006;-54
2022/07/27 00:07:08;;;;;;;;;;;614.60;2432.00;;;;;;5114557;28;20354;-55
2022/07/27 00:09:33;;;;;;;;;;;614.60;2432.00;;;;;;5114702;28;20338;-55
2022/07/27 00:11:59;;;;;;;;;;;589.70;2432.00;;;;;;5114201;28;20024;-55
2022/07/27 00:14:26;;;;;;;;;;;614.70;2432.00;;;;;;5114351;28;19915;-56
2022/07/27 00:16:51;;;;;;;;;;;614.60;2432.00;;;;;;5114500;28;19962;-55
2022/07/27 00:19:17;;;;;;;;;;;614.50;2432.00;;;;;;5114197;28;19912;-54
2022/07/27 00:21:42;;;;;;;;;;;614.40;2432.00;;;;;;5114505;28;19969;-55
2022/07/27 00:24:08;;;;;;;;;;;614.40;2432.00;;;;;;5114247;28;20369;-55
2022/07/27 00:26:33;;;;;;;;;;;614.40;2432.00;;;;;;5114276;28;20281;-54
2022/07/27 00:28:59;;;;;;;;;;;589.70;2432.00;;;;;;5114112;28;19937;-55
2022/07/27 00:31:25;;;;;;;;;;;614.40;2432.00;;;;;;5114114;28;19980;-55
2022/07/27 00:33:50;;;;;;;;;;;614.40;2432.00;;;;;;5113770;28;19907;-55
2022/07/27 00:36:16;;;;;;;;;;;614.40;2432.00;;;;;;5113798;28;19908;-55
2022/07/27 00:38:41;;;;;;;;;;;614.40;2432.00;;;;;;5114100;28;19912;-55
2022/07/27 00:41:07;;;;;;;;;;;614.40;2432.00;;;;;;5113590;28;20273;-55
2022/07/27 00:43:47;;;;;;;;;;;589.70;2432.00;;;;;;5114259;28;19968;-55
2022/07/27 00:46:13;;;;;;;;;;;589.70;2432.00;;;;;;5114047;28;20346;-54
2022/07/27 00:48:38;;;;;;;;;;;589.70;2432.00;;;;;;5113676;28;19908;-55
2022/07/27 00:51:05;;;;;;;;;;;589.70;2432.00;;;;;;5113943;28;20298;-55
2022/07/27 00:53:31;;;;;;;;;;;589.60;2432.00;;;;;;5113833;28;19914;-55
2022/07/27 00:55:57;;;;;;;;;;;589.60;2432.00;;;;;;5113542;28;20006;-55
2022/07/27 00:58:24;;;;;;;;;;;589.70;2432.00;;;;;;5113818;28;19907;-55
2022/07/27 01:00:49;;;;;;;;;;;589.70;2432.00;;;;;;5113498;28;19915;-54
2022/07/27 01:03:15;;;;;;;;;;;589.60;2432.00;;;;;;5113329;28;19916;-55
2022/07/27 01:05:40;;;;;;;;;;;589.60;2432.00;;;;;;5113687;28;20038;-55
2022/07/27 01:08:07;;;;;;;;;;;589.60;2432.00;;;;;;5113498;28;19912;-55
2022/07/27 01:10:33;;;;;;;;;;;589.60;2432.00;;;;;;5113321;28;19955;-55
2022/07/27 01:12:58;;;;;;;;;;;589.60;2432.00;;;;;;5113457;28;19997;-55
2022/07/27 01:15:24;;;;;;;;;;;589.60;2432.00;;;;;;5113582;28;20370;-55
2022/07/27 01:17:50;;;;;;;;;;;589.60;2432.00;;;;;;5113657;28;19908;-54
2022/07/27 01:20:15;;;;;;;;;;;589.60;2432.00;;;;;;5113228;28;19914;-55
2022/07/27 01:22:41;;;;;;;;;;;589.60;2432.00;;;;;;5113259;28;19923;-55
2022/07/27 01:25:07;;;;;;;;;;;589.60;2432.00;;;;;;5113027;28;19919;-55
2022/07/27 01:27:32;;;;;;;;;;;589.60;2432.00;;;;;;5113257;28;20277;-55
2022/07/27 01:29:58;;;;;;;;;;;589.60;2432.00;;;;;;5113080;28;19907;-55
2022/07/27 01:32:23;;;;;;;;;;;589.60;2432.00;;;;;;5113216;28;19912;-55
2022/07/27 01:34:49;;;;;;;;;;;589.50;2432.00;;;;;;5112895;28;19908;-55
2022/07/27 01:37:14;;;;;;;;;;;589.50;2432.00;;;;;;5113019;28;19987;-55
2022/07/27 01:39:40;;;;;;;;;;;589.40;2432.00;;;;;;5112862;28;19907;-55
2022/07/27 01:42:06;;;;;;;;;;;589.40;2432.00;;;;;;5112376;28;19919;-56
2022/07/27 01:44:31;;;;;;;;;;;589.40;2432.00;;;;;;5112706;28;19912;-54
2022/07/27 01:46:57;;;;;;;;;;;589.50;2432.00;;;;;;5112683;28;19908;-54
2022/07/27 01:49:22;;;;;;;;;;;589.40;2432.00;;;;;;5112954;28;20270;-55
2022/07/27 01:51:48;;;;;;;;;;;589.40;2432.00;;;;;;5112649;28;19930;-55
2022/07/27 01:54:14;;;;;;;;;;;589.40;2432.00;;;;;;5112697;28;19961;-55
2022/07/27 01:56:39;;;;;;;;;;;589.40;2432.00;;;;;;5112345;28;20265;-55
2022/07/27 01:59:05;;;;;;;;;;;589.40;2432.00;;;;;;5112192;28;19908;-55
2022/07/27 02:01:31;;;;;;;;;;;589.50;2432.00;;;;;;5112367;28;19920;-54
2022/07/27 02:03:56;;;;;;;;;;;589.50;2432.00;;;;;;5112093;28;20018;-54
2022/07/27 02:06:22;;;;;;;;;;;589.60;2432.00;;;;;;5112520;28;19908;-55
2022/07/27 02:08:47;;;;;;;;;;;589.60;2432.00;;;;;;5112160;28;20056;-55
2022/07/27 02:13:57;;;;;;;;;;;589.50;2432.00;;;;;;5112098;28;19923;-55
2022/07/27 02:16:22;;;;;;;;;;;589.60;2432.00;;;;;;5112201;28;19908;-54
2022/07/27 02:18:48;;;;;;;;;;;589.40;2432.00;;;;;;5112025;28;19915;-55
2022/07/27 02:21:13;;;;;;;;;;;589.40;2432.00;;;;;;5112073;28;19953;-55
2022/07/27 02:23:39;;;;;;;;;;;589.30;2432.00;;;;;;5112217;28;19951;-55
2022/07/27 02:26:06;;;;;;;;;;;589.30;2432.00;;;;;;5111846;28;19914;-55
2022/07/27 02:28:32;;;;;;;;;;;589.40;2432.00;;;;;;5111866;28;20522;-55
2022/07/27 02:30:58;;;;;;;;;;;589.40;2432.00;;;;;;5111675;28;19908;-55
2022/07/27 02:33:23;;;;;;;;;;;589.40;2432.00;;;;;;5111752;28;20269;-56
2022/07/27 02:35:49;;;;;;;;;;;589.30;2432.00;;;;;;5111924;28;19961;-54
2022/07/27 02:38:15;;;;;;;;;;;589.30;2432.00;;;;;;5111718;28;19953;-55
2022/07/27 02:40:40;;;;;;;;;;;589.30;2432.00;;;;;;5111631;28;19918;-54
2022/07/27 02:43:06;;;;;;;;;;;589.20;2432.00;;;;;;5111406;28;19924;-55
2022/07/27 02:45:31;;;;;;;;;;;589.20;2432.00;;;;;;5111901;28;19908;-55
2022/07/27 02:47:57;;;;;;;;;;;589.20;2432.00;;;;;;5111564;28;19914;-55
2022/07/27 02:50:23;;;;;;;;;;;589.20;2432.00;;;;;;5111809;28;19937;-55
2022/07/27 02:52:48;;;;;;;;;;;589.20;2432.00;;;;;;5111397;28;19935;-55
2022/07/27 02:55:14;;;;;;;;;;;589.10;2432.00;;;;;;5111392;28;19908;-56
2022/07/27 02:57:39;;;;;;;;;;;589.10;2432.00;;;;;;5111112;28;19908;-55
2022/07/27 03:00:06;;;;;;;;;;;589.20;2432.00;;;;;;5111078;28;19908;-55
2022/07/27 03:02:32;;;;;;;;;;;589.20;2432.00;;;;;;5111626;28;19920;-55
2022/07/27 03:04:58;;;;;;;;;;;589.20;2432.00;;;;;;5111407;28;20364;-55
2022/07/27 03:07:23;;;;;;;;;;;589.20;2432.00;;;;;;5111491;28;19968;-55
2022/07/27 03:09:49;;;;;;;;;;;589.00;2432.00;;;;;;5111338;28;19908;-55
2022/07/27 03:12:14;;;;;;;;;;;589.00;2432.00;;;;;;5110880;28;19908;-55
2022/07/27 03:14:40;;;;;;;;;;;588.90;2432.00;;;;;;5111438;28;19919;-54
2022/07/27 03:17:05;;;;;;;;;;;589.00;2432.00;;;;;;5111096;28;19908;-55
2022/07/27 03:19:31;;;;;;;;;;;589.00;2432.00;;;;;;5111335;28;19908;-55
2022/07/27 03:21:57;;;;;;;;;;;589.00;2432.00;;;;;;5110917;28;20425;-55
2022/07/27 03:24:22;;;;;;;;;;;589.00;2432.00;;;;;;5111271;28;19908;-54
2022/07/27 03:26:48;;;;;;;;;;;589.00;2432.00;;;;;;5111178;28;20368;-55
2022/07/27 03:29:13;;;;;;;;;;;589.00;2432.00;;;;;;5111122;28;19915;-55
2022/07/27 03:31:39;;;;;;;;;;;589.10;2432.00;;;;;;5111143;28;19914;-55
2022/07/27 03:34:04;;;;;;;;;;;589.10;2432.00;;;;;;5110985;28;19908;-55
2022/07/27 03:36:30;;;;;;;;;;;589.00;2432.00;;;;;;5111329;28;19915;-54
2022/07/27 03:38:55;;;;;;;;;;;589.00;2432.00;;;;;;5111065;28;19960;-55
2022/07/27 03:41:21;;;;;;;;;;;589.00;2432.00;;;;;;5110940;28;19922;-55
2022/07/27 03:43:47;;;;;;;;;;;589.10;2432.00;;;;;;5111059;28;19955;-55
2022/07/27 03:46:12;;;;;;;;;;;589.00;2432.00;;;;;;5111256;28;20342;-55
2022/07/27 03:48:38;;;;;;;;;;;589.10;2432.00;;;;;;5110770;28;19908;-55
2022/07/27 03:51:04;;;;;;;;;;;589.20;2432.00;;;;;;5110500;28;20365;-55
2022/07/27 03:53:30;;;;;;;;;;;589.10;2432.00;;;;;;5111116;28;19915;-55
2022/07/27 03:55:55;;;;;;;;;;;589.20;2432.00;;;;;;5110881;28;20311;-55
2022/07/27 03:58:22;;;;;;;;;;;589.30;2432.00;;;;;;5111024;28;19914;-54
2022/07/27 04:00:48;;;;;;;;;;;589.40;2432.00;;;;;;5110606;28;20293;-55
2022/07/27 04:03:13;;;;;;;;;;;589.50;2432.00;;;;;;5110960;28;19916;-55
2022/07/27 04:05:39;;;;;;;;;;;589.40;2432.00;;;;;;5111023;28;20439;-55
2022/07/27 04:08:05;;;;;;;;;;;589.60;2432.00;;;;;;5110753;28;19908;-55
2022/07/27 04:10:30;;;;;;;;;;;589.70;2432.00;;;;;;5113139;28;19930;-54
2022/07/27 04:12:56;;;;;;;;;;;614.50;2432.00;;;;;;5114327;28;19911;-55
2022/07/27 04:15:21;;;;;;;;;;;614.60;2432.00;;;;;;5114555;28;20384;-54
2022/07/27 04:17:47;;;;;;;;;;;614.80;2432.00;;;;;;5114134;28;19954;-54
2022/07/27 04:20:13;;;;;;;;;;;615.00;2432.00;;;;;;5114700;28;19961;-54
2022/07/27 04:22:38;;;;;;;;;;;615.20;2432.00;;;;;;5114249;28;20273;-54
2022/07/27 04:25:04;;;;;;;;;;;615.30;2432.00;;;;;;5114523;28;19908;-55
2022/07/27 04:27:30;;;;;;;;;;;615.20;2432.00;;;;;;5114382;28;19915;-55
2022/07/27 04:29:55;;;;;;;;;;;615.30;2432.00;;;;;;5114172;28;19916;-55
2022/07/27 04:32:21;;;;;;;;;;;640.20;2432.00;;;;;;5113961;28;20358;-55
2022/07/27 04:34:46;;;;;;;;;;;640.40;2432.00;;;;;;5113914;28;20293;-56
2022/07/27 04:37:12;;;;;;;;;;;640.30;2432.00;;;;;;5114297;28;19915;-55
2022/07/27 04:39:37;;;;;;;;;;;640.20;2432.00;;;;;;5114051;28;20375;-55
2022/07/27 04:42:03;;;;;;;;;;;640.00;2432.00;;;;;;5113937;28;19965;-55
2022/07/27 04:44:29;;;;;;;;;;;615.30;2432.00;;;;;;5113808;28;19911;-55
2022/07/27 04:46:54;;;;;;;;;;;615.30;2432.00;;;;;;5113810;28;20369;-55
2022/07/27 04:49:20;;;;;;;;;;;640.10;2432.00;;;;;;5113980;28;19930;-55
2022/07/27 04:51:45;;;;;;;;;;;640.50;2432.00;;;;;;5113881;28;19915;-55
2022/07/27 04:54:11;;;;;;;;;;;640.90;2432.00;;;;;;5113820;28;19911;-55
2022/07/27 04:56:37;;;;;;;;;;;640.80;2432.00;;;;;;5113515;28;19931;-56
2022/07/27 04:59:02;;;;;;;;;;;640.70;2432.00;;;;;;5113710;28;19915;-55
2022/07/27 05:01:28;;;;;;;;;;;640.70;2432.00;;;;;;5113279;28;20383;-55
2022/07/27 05:03:53;;;;;;;;;;;640.50;2432.00;;;;;;5113568;28;19911;-55
2022/07/27 05:06:19;;;;;;;;;;;640.40;2432.00;;;;;;5113487;28;19912;-55
2022/07/27 05:08:44;;;;;;;;;;;640.40;2432.00;;;;;;5113502;28;19908;-55
2022/07/27 05:11:10;;;;;;;;;;;640.30;2432.00;;;;;;5113498;28;19951;-55
2022/07/27 05:13:38;;;;;;;;;;;640.40;2432.00;;;;;;5113299;28;20261;-55
2022/07/27 05:16:05;;;;;;;;;;;640.50;2432.00;;;;;;5113370;28;19914;-55
2022/07/27 05:18:31;;;;;;;;;;;640.50;2432.00;;;;;;5113526;28;19908;-55
2022/07/27 05:20:56;;;;;;;;;;;640.70;2432.00;;;;;;5112802;28;19964;-55
2022/07/27 05:23:22;;;;;;;;;;;640.80;2432.00;;;;;;5113197;28;19922;-55
2022/07/27 05:25:47;;;;;;;;;;;640.70;2432.00;;;;;;5113101;28;19954;-55
2022/07/27 05:28:13;;;;;;;;;;;640.70;2432.00;;;;;;5113113;28;20364;-55
2022/07/27 05:30:39;;;;;;;;;;;640.70;2432.00;;;;;;5112894;28;19951;-55
2022/07/27 05:33:04;;;;;;;;;;;640.70;2432.00;;;;;;5113015;28;19908;-54
2022/07/27 05:35:30;;;;;;;;;;;640.80;2432.00;;;;;;5113152;28;19908;-55
2022/07/27 05:37:56;;;;;;;;;;;640.90;2432.00;;;;;;5112835;28;19908;-56
2022/07/27 05:40:21;;;;;;;;;;;640.90;2432.00;;;;;;5112842;28;19907;-55
2022/07/27 05:42:47;;;;;;;;;;;665.70;2432.00;;;;;;5112562;28;19923;-55
2022/07/27 05:45:13;;;;;;;;;;;666.20;2432.00;;;;;;5112925;28;19914;-55
2022/07/27 05:47:39;;;;;;;;;;;691.40;2432.00;;;;;;5112512;28;19914;-55
2022/07/27 05:50:06;;;;;;;;;;;716.80;2432.00;;;;;;5112839;28;19908;-57
2022/07/27 05:52:32;;;;;;;;;;;;;;;;;;5112835;28;19918;-56
2022/07/27 05:54:57;;;;;;;;;;;717.50;2432.00;;;;;;5112379;28;19911;-56
2022/07/27 05:57:23;;;;;;;;;;;768.90;2201.60;;;;;;5112469;28;20007;-56
2022/07/27 05:59:53;;;;;;;;;;;820.00;1945.60;;;;;;5112334;28;19908;-56
2022/07/27 06:02:18;;;;;;;;;;;793.80;2048.00;;;;;;5112322;28;19920;-56
2022/07/27 06:04:44;;;;;;;;;;;768.90;2048.00;;;;;;5112425;28;19931;-56
2022/07/27 06:09:54;;;;;;;;;;;870.50;1792.00;;;;;;5112410;28;19965;-56
2022/07/27 06:12:20;;;;;;;;;;;896.70;1612.80;;;;;;5112144;28;19912;-56
2022/07/27 06:14:45;;;;;;;;;;;;;;;;;;5112071;28;19912;-56
2022/07/27 06:17:11;;;;;;;;;;;;;;;;;;5112053;28;19933;-56
2022/07/27 06:19:38;;;;;;;;;;;922.50;1561.60;;;;;;5111901;28;20002;-56
2022/07/27 06:22:05;;;;;;;;;;;998.40;1408.00;;;;;;5112058;28;19916;-56
2022/07/27 06:24:31;;;;;;;;;;;998.70;1356.80;;;;;;5112130;28;19908;-56
2022/07/27 06:26:56;;;;;;;;;;;999.10;1356.80;;;;;;5111828;28;20020;-57
2022/07/27 06:29:22;;;;;;;;;;;1024.90;1280.00;;;;;;5111947;28;19908;-57
2022/07/27 06:31:47;;;;;;;;;;;1024.60;1254.40;;;;;;5110814;28;19912;-57
2022/07/27 06:34:13;;;;;;;;;;;1024.90;1254.40;;;;;;5111630;28;20373;-57
2022/07/27 06:36:41;;;;;;;;;;;1050.00;1254.40;;;;;;5111605;28;20002;-57
2022/07/27 06:39:07;;;;;;;;;;;;;;;;;;5111818;28;19961;-56
2022/07/27 06:41:33;;;;;;;;;;;1075.30;1228.80;;;;;;5111614;28;20327;-57
2022/07/27 06:43:59;;;;;;;;;;;1075.60;1177.60;;;;;;5092029;28;20046;-57
2022/07/27 06:46:24;;;;;;;;;;;1075.80;1152.00;;;;;;5109293;28;20440;-58
2022/07/27 06:48:50;;;;;;;;;;;1075.70;1177.60;;;;;;5109440;28;20328;-57
2022/07/27 06:51:16;;;;;;;;;;;1075.70;1152.00;;;;;;5109406;28;19961;-57
2022/07/27 06:53:41;;;;;;;;;;;1075.50;1177.60;;;;;;5109440;28;20365;-57
2022/07/27 06:56:07;;;;;;;;;;;;;;;;;;5109493;28;19919;-57
2022/07/27 06:58:33;;;;;;;;;;;;;;;;;;5108951;28;20365;-57
2022/07/27 07:01:01;;;;;;;;;;;;;;;;;;5108998;28;20281;-57
2022/07/27 07:03:28;;;;;;;;;;;1076.10;1152.00;;;;;;5108138;28;20296;-57
2022/07/27 07:05:54;;;;;;;;;;;;;;;;;;5109281;28;19908;-58
2022/07/27 07:08:21;;;;;;;;;;;1101.70;1100.80;;;;;;5109353;28;20002;-57
2022/07/27 07:10:47;;;;;;;;;;;1075.70;1152.00;;;;;;5108727;28;20276;-57
2022/07/27 07:13:13;;;;;;;;;;;1101.50;1100.80;;;;;;5109340;28;19912;-58
2022/07/27 07:15:39;;;;;;;;;;;1126.60;1100.80;;;;;;5109071;28;20297;-57
2022/07/27 07:18:06;;;;;;;;;;;1127.10;1049.60;;;;;;5108961;28;20007;-59
2022/07/27 07:20:32;;;;;;;;;;;1101.00;1100.80;;;;;;5109415;28;19931;-57
2022/07/27 07:22:58;;;;;;;;;;;1126.40;1100.80;;;;;;5108710;28;20308;-58
2022/07/27 07:25:23;;;;;;;;;;;1126.90;1075.20;;;;;;5109263;28;19912;-57
2022/07/27 07:27:49;;;;;;;;;;;1152.20;1024.00;;;;;;5108929;28;20322;-58
2022/07/27 07:30:15;;;;;;;;;;;1152.90;1024.00;;;;;;5108992;28;19912;-59
2022/07/27 07:32:40;;;;;;;;;;;1152.20;1024.00;;;;;;5108983;28;19968;-58
2022/07/27 07:35:06;;;;;;;;;;;1152.40;1024.00;;;;;;5108939;28;20350;-57
2022/07/27 07:37:32;;;;;;;;;;;1152.90;998.40;;;;;;5108468;28;19951;-57
2022/07/27 07:39:58;;;;;;;;;;;1178.00;998.40;;;;;;5109612;28;20004;-58
2022/07/27 07:42:23;;;;;;;;;;;1203.30;972.80;;;;;;5110969;28;19927;-57
2022/07/27 07:44:49;;;;;;;;;;;1178.20;972.80;;;;;;5113880;28;19912;-58
2022/07/27 07:47:15;;;;;;;;;;;1178.10;972.80;;;;;;5114925;28;20265;-58
2022/07/27 07:49:40;;;;;;;;;;;1101.50;1049.60;;;;;;5114807;28;19907;-57
2022/07/27 07:52:06;;;;;;;;;;;1075.40;1100.80;;;;;;5114287;28;20269;-57
2022/07/27 07:54:32;;;;;;;;;;;1101.70;1049.60;;;;;;5113028;28;19918;-57
2022/07/27 07:56:58;;;;;;;;;;;1152.40;998.40;;;;;;5113111;28;19908;-58
2022/07/27 07:59:23;;;;;;;;;;;1127.30;1024.00;;;;;;5113293;28;19908;-56
2022/07/27 08:01:49;;;;;;;;;;;1152.70;998.40;;;;;;5112858;28;19919;-58
2022/07/27 08:04:14;;;;;;;;;;;1177.80;972.80;;;;;;5113025;28;19954;-58
2022/07/27 08:06:40;;;;;;;;;;;1178.10;947.20;;;;;;5113127;28;19960;-56
2022/07/27 08:09:06;;;;;;;;;;;1152.90;972.80;;;;;;5112870;28;20449;-58
2022/07/27 08:11:31;;;;;;;;;;;1178.20;947.20;;;;;;5112926;28;19982;-57
2022/07/27 08:13:57;;;;;;;;;;;1203.20;972.80;;;;;;5112652;28;19920;-58
2022/07/27 08:16:23;;;;;;;;;;;1203.90;921.60;;;;;;5112924;28;19999;-57
2022/07/27 08:18:48;;;;;;;;;;;1228.90;921.60;;;;;;5112954;28;19916;-57
2022/07/27 08:21:14;;;;;;;;;;;1178.10;947.20;;;;;;5112649;28;19915;-57
2022/07/27 08:23:40;;;;;;;;;;;1203.40;947.20;;;;;;5113024;28;20388;-57
2022/07/27 08:26:05;;;;;;;;;;;1203.30;947.20;;;;;;5112831;28;19908;-58
2022/07/27 08:28:31;;;;;;;;;;;1203.20;947.20;;;;;;5112601;28;19908;-57
2022/07/27 08:30:56;;;;;;;;;;;1127.30;998.40;;;;;;5112568;28;20052;-57
2022/07/27 08:33:23;;;;;;;;;;;1100.80;1049.60;;;;;;5112309;28;19954;-56
2022/07/27 08:35:48;;;;;;;;;;;1024.90;1100.80;;;;;;5112521;28;19912;-56
2022/07/27 08:38:14;;;;;;;;;;;999.00;1177.60;;;;;;5114360;28;20327;-57
2022/07/27 08:40:40;;;;;;;;;;;973.70;1177.60;;;;;;5114060;28;19907;-56
2022/07/27 08:43:06;;;;;;;;;;;973.20;1228.80;;;;;;5113834;28;20072;-57
2022/07/27 08:45:32;;;;;;;;;;;973.00;1228.80;;;;;;5113986;28;19915;-57
2022/07/27 08:47:58;;;;;;;;;;;947.90;1228.80;;;;;;5113276;28;20009;-56
2022/07/27 08:50:24;;;;;;;;;;;947.50;1254.40;;;;;;5133241;27;20390;-56
2022/07/27 08:52:55;;;;;;;;;;;947.80;1228.80;;;;;;5125188;27;19915;-56
2022/07/27 08:55:22;;;;;;;;;;;922.40;1254.40;;;;;;5112830;28;19911;-56
2022/07/27 08:57:47;;;;;;;;;;;922.30;1254.40;;;;;;5112537;28;20254;-56
2022/07/27 09:00:13;;;;;;;;;;;922.50;1228.80;;;;;;5122356;27;19918;-56
2022/07/27 09:02:41;;;;;;;;;;;947.20;1254.40;;;;;;5133407;27;20007;-56
2022/07/27 09:05:07;;;;;;;;;;;947.70;1228.80;;;;;;5125055;27;20318;-56
2022/07/27 09:07:33;;;;;;;;;;;947.30;1254.40;;;;;;5133689;27;19914;-57
2022/07/27 09:09:58;;;;;;;;;;;922.50;1280.00;;;;;;5123235;27;20024;-56
2022/07/27 09:12:28;;;;;;;;;;;947.20;1254.40;;;;;;5113541;28;19911;-57
2022/07/27 09:15:10;;;;;;;;;;;947.80;1228.80;;;;;;5113616;28;20354;-58
2022/07/27 09:17:36;;;;;;;;;;;922.50;1254.40;;;;;;5113142;28;19908;-57
2022/07/27 09:20:07;;;;;;;;;;;921.90;1280.00;;;;;;5113205;28;19911;-58
2022/07/27 09:22:51;;;;;;;;;;;922.00;1254.40;;;;;;5113465;28;19915;-56
2022/07/27 09:25:29;;;;;;;;;;;896.80;1254.40;;;;;;5113100;28;19911;-59
2022/07/27 09:27:55;;;;;;;;;;;871.30;1305.60;;;;;;5113106;28;19907;-58
2022/07/27 09:30:21;;;;;;;;;;;870.90;1305.60;;;;;;5112896;28;19915;-59
2022/07/27 09:32:57;;;;;;;;;;;896.30;1280.00;;;;;;5112833;28;19908;-58
2022/07/27 09:35:32;;;;;;;;;;;896.50;1254.40;;;;;;5112952;28;20037;-58
2022/07/27 09:38:16;;;;;;;;;;;896.10;1254.40;;;;;;5112872;28;20345;-56
2022/07/27 09:40:42;;;;;;;;;;;870.90;1305.60;;;;;;5112816;28;20316;-56
2022/07/27 09:43:09;;;;;;;;;;;845.30;1382.40;;;;;;5112615;28;19927;-56
2022/07/27 09:45:35;;;;;;;;;;;845.40;1382.40;;;;;;5112910;28;19908;-57
2022/07/27 09:48:20;;;;;;;;;;;870.50;1356.80;;;;;;5112821;28;19953;-58
2022/07/27 09:51:00;;;;;;;;;;;870.50;1382.40;;;;;;5112476;28;19908;-58
2022/07/27 09:53:27;;;;;;;;;;;844.90;1433.60;;;;;;5112430;28;19908;-56
2022/07/27 09:55:57;;;;;;;;;;;845.30;1382.40;;;;;;5112662;28;19949;-57
2022/07/27 09:58:38;;;;;;;;;;;844.80;1408.00;;;;;;5112694;28;19915;-58
2022/07/27 10:01:04;;;;;;;;;;;845.30;1382.40;;;;;;5112228;28;20006;-58
2022/07/27 10:03:30;;;;;;;;;;;870.50;1382.40;;;;;;5112329;28;20461;-55
2022/07/27 10:05:55;;;;;;;;;;;870.70;1331.20;;;;;;5112201;28;19908;-56
2022/07/27 10:08:21;;;;;;;;;;;845.60;1356.80;;;;;;5111685;28;19915;-56
2022/07/27 10:10:47;;;;;;;;;;;845.30;1382.40;;;;;;5112089;28;19916;-56
2022/07/27 10:13:13;;;;;;;;;;;845.30;1382.40;;;;;;5112502;28;19912;-59
2022/07/27 10:15:39;;;;;;;;;;;845.20;1382.40;;;;;;5112120;28;20379;-56
2022/07/27 10:18:07;;;;;;;;;;;845.50;1356.80;;;;;;5112049;28;19955;-58
2022/07/27 10:20:34;;;;;;;;;;;845.20;1408.00;;;;;;5112184;28;19937;-56
2022/07/27 10:23:00;;;;;;;;;;;845.00;1408.00;;;;;;5112104;28;19915;-56
2022/07/27 10:25:27;;;;;;;;;;;820.10;1408.00;;;;;;5112148;28;19961;-58
2022/07/27 10:28:08;;;;;;;;;;;819.80;1382.40;;;;;;5112086;28;19908;-58
2022/07/27 10:30:33;;;;;;;;;;;819.60;1408.00;;;;;;5112032;28;19908;-55
2022/07/27 10:33:01;;;;;;;;;;;819.80;1382.40;;;;;;5111779;28;19908;-59
2022/07/27 10:35:31;;;;;;;;;;;845.10;1382.40;;;;;;5111752;28;19935;-56
2022/07/27 10:38:07;;;;;;;;;;;844.90;1356.80;;;;;;5111734;28;19911;-56
2022/07/27 10:40:35;;;;;;;;;;;819.60;1331.20;;;;;;5111585;28;19912;-55
2022/07/27 10:43:10;;;;;;;;;;;844.80;1356.80;;;;;;5111768;28;19941;-58
2022/07/27 10:45:43;;;;;;;;;;;845.40;1331.20;;;;;;5111615;28;19915;-56
2022/07/27 10:48:28;;;;;;;;;;;845.40;1254.40;;;;;;5111479;28;19914;-58
2022/07/27 10:50:54;;;;;;;;;;;845.20;1305.60;;;;;;5111481;28;19907;-59
2022/07/27 10:53:30;;;;;;;;;;;845.70;1280.00;;;;;;5111493;28;20314;-58
2022/07/27 10:55:56;;;;;;;;;;;870.50;1280.00;;;;;;5111447;28;19984;-55
2022/07/27 10:58:22;;;;;;;;;;;845.70;1305.60;;;;;;5111707;28;19915;-58
2022/07/27 11:00:48;;;;;;;;;;;870.70;1280.00;;;;;;5111016;28;20033;-57
2022/07/27 11:03:32;;;;;;;;;;;845.70;1280.00;;;;;;5111518;28;20010;-57
2022/07/27 11:06:11;;;;;;;;;;;845.30;1305.60;;;;;;5111181;28;20281;-56
2022/07/27 11:08:38;;;;;;;;;;;845.30;1305.60;;;;;;5111186;28;19908;-57
2022/07/27 11:11:04;;;;;;;;;;;844.90;1356.80;;;;;;5111246;28;19912;-58
2022/07/27 11:13:30;;;;;;;;;;;845.00;1331.20;;;;;;5111404;28;19911;-58
2022/07/27 11:16:22;;;;;;;;;;;845.60;1305.60;;;;;;5111458;28;19914;-57
2022/07/27 11:18:55;;;;;;;;;;;845.60;1305.60;;;;;;5107374;28;19911;-57
2022/07/27 11:21:23;;;;;;;;;;;844.90;1331.20;;;;;;5115580;28;19943;-58
2022/07/27 11:23:51;;;;;;;;;;;845.40;1305.60;;;;;;5115332;28;20386;-58
2022/07/27 11:26:16;;;;;;;;;;;845.70;1305.60;;;;;;5115398;28;19995;-56
2022/07/27 11:28:42;;;;;;;;;;;870.60;1280.00;;;;;;5115589;28;19962;-58
2022/07/27 11:31:09;;;;;;;;;;;870.50;1305.60;;;;;;5115280;28;19911;-57
2022/07/27 11:33:34;;;;;;;;;;;870.50;1305.60;;;;;;5115411;28;19908;-58
2022/07/27 11:36:01;;;;;;;;;;;845.30;1305.60;;;;;;5115266;28;19907;-56
2022/07/27 11:38:27;;;;;;;;;;;845.30;1280.00;;;;;;5114984;28;19915;-57
2022/07/27 11:40:53;;;;;;;;;;;845.20;1280.00;;;;;;5115257;28;19911;-57
2022/07/27 11:43:38;;;;;;;;;;;844.80;1305.60;;;;;;5115027;28;20414;-58
2022/07/27 11:46:10;;;;;;;;;;;844.80;1280.00;;;;;;5115333;28;20419;-58
2022/07/27 11:48:35;;;;;;;;;;;844.80;1280.00;;;;;;5114863;28;19908;-58
2022/07/27 11:51:01;;;;;;;;;;;844.90;1280.00;;;;;;5114995;28;19961;-56
2022/07/27 11:53:27;;;;;;;;;;;845.70;1254.40;;;;;;5114904;28;19911;-56
2022/07/27 11:55:53;;;;;;;;;;;845.70;1228.80;;;;;;5115182;28;19908;-58
2022/07/27 11:58:19;;;;;;;;;;;845.20;1280.00;;;;;;5114724;28;20327;-58
2022/07/27 12:00:44;;;;;;;;;;;845.20;1280.00;;;;;;5114690;28;19920;-56
2022/07/27 12:03:20;;;;;;;;;;;845.70;1254.40;;;;;;5114457;28;19923;-56
2022/07/27 12:05:49;;;;;;;;;;;845.30;1280.00;;;;;;5096134;28;20269;-56
2022/07/27 12:08:15;;;;;;;;;;;845.10;1305.60;;;;;;5114857;28;19952;-57
2022/07/27 12:10:57;;;;;;;;;;;845.70;1280.00;;;;;;5114701;28;19915;-59
2022/07/27 12:13:30;;;;;;;;;;;845.70;1280.00;;;;;;5114925;28;19912;-58
2022/07/27 12:15:56;;;;;;;;;;;845.60;1280.00;;;;;;5114481;28;19908;-55
2022/07/27 12:18:22;;;;;;;;;;;845.10;1305.60;;;;;;5114374;28;20422;-59
2022/07/27 12:20:49;;;;;;;;;;;845.10;1305.60;;;;;;5114582;28;19908;-56
2022/07/27 12:23:14;;;;;;;;;;;845.00;1305.60;;;;;;5114419;28;19923;-58
2022/07/27 12:25:40;;;;;;;;;;;845.10;1305.60;;;;;;5114408;28;19911;-56
2022/07/27 12:28:11;;;;;;;;;;;845.40;1280.00;;;;;;5114236;28;19968;-56
2022/07/27 12:30:38;;;;;;;;;;;845.50;1254.40;;;;;;5112944;28;19912;-56
2022/07/27 12:33:22;;;;;;;;;;;845.60;1254.40;;;;;;5114066;28;20346;-58
2022/07/27 12:35:48;;;;;;;;;;;845.40;1280.00;;;;;;5114065;28;20365;-56
2022/07/27 12:38:15;;;;;;;;;;;845.30;1280.00;;;;;;5114374;28;19954;-57
2022/07/27 12:40:47;;;;;;;;;;;845.00;1280.00;;;;;;5113971;28;19912;-58
2022/07/27 12:43:14;;;;;;;;;;;845.20;1280.00;;;;;;5113977;28;19973;-56
2022/07/27 12:45:40;;;;;;;;;;;844.90;1305.60;;;;;;5113658;28;19908;-57
2022/07/27 12:48:08;;;;;;;;;;;820.10;1280.00;;;;;;5114105;28;19991;-56
2022/07/27 12:50:34;;;;;;;;;;;845.00;1280.00;;;;;;5113988;28;19952;-57
2022/07/27 12:53:00;;;;;;;;;;;845.30;1280.00;;;;;;5113616;28;19991;-57
2022/07/27 12:55:25;;;;;;;;;;;845.10;1280.00;;;;;;5113753;28;20302;-57
2022/07/27 12:57:54;;;;;;;;;;;845.10;1280.00;;;;;;5113786;28;19908;-58
2022/07/27 13:00:22;;;;;;;;;;;845.10;1280.00;;;;;;5113438;28;20092;-57
2022/07/27 13:02:47;;;;;;;;;;;845.60;1280.00;;;;;;5113537;28;19955;-56
2022/07/27 13:05:13;;;;;;;;;;;845.40;1280.00;;;;;;5113796;28;19969;-58
2022/07/27 13:07:41;;;;;;;;;;;845.30;1280.00;;;;;;5113487;28;19915;-56
2022/07/27 13:10:08;;;;;;;;;;;845.20;1280.00;;;;;;5113311;28;20238;-58
2022/07/27 13:12:34;;;;;;;;;;;845.20;1305.60;;;;;;5113446;28;20327;-57
2022/07/27 13:15:00;;;;;;;;;;;845.20;1305.60;;;;;;5113139;28;19908;-58
2022/07/27 13:17:26;;;;;;;;;;;845.40;1305.60;;;;;;5113131;28;19915;-55
2022/07/27 13:19:52;;;;;;;;;;;845.40;1280.00;;;;;;5113441;28;19967;-57
2022/07/27 13:22:17;;;;;;;;;;;845.20;1305.60;;;;;;5113031;28;20342;-59
2022/07/27 13:24:43;;;;;;;;;;;845.30;1280.00;;;;;;5113322;28;19915;-59
2022/07/27 13:27:08;;;;;;;;;;;844.90;1305.60;;;;;;5112990;28;19908;-56
2022/07/27 13:29:34;;;;;;;;;;;845.00;1280.00;;;;;;5113281;28;19915;-60
2022/07/27 13:32:00;;;;;;;;;;;820.10;1254.40;;;;;;5112938;28;19908;-59
2022/07/27 13:34:25;;;;;;;;;;;844.90;1305.60;;;;;;5112675;28;19912;-57
2022/07/27 13:36:51;;;;;;;;;;;845.30;1305.60;;;;;;5113063;28;19908;-58
2022/07/27 13:39:17;;;;;;;;;;;845.30;1280.00;;;;;;5112689;28;19908;-55
2022/07/27 13:41:42;;;;;;;;;;;845.30;1280.00;;;;;;5112567;28;19920;-55
2022/07/27 13:44:08;;;;;;;;;;;845.40;1280.00;;;;;;5112659;28;20423;-55
2022/07/27 13:46:34;;;;;;;;;;;844.90;1280.00;;;;;;5112915;28;19908;-54
2022/07/27 13:49:01;;;;;;;;;;;845.20;1280.00;;;;;;5110693;28;19984;-59